sensor_id;sensor_type;location;lat;lon;timestamp;temperature;humidity
64689;DHT22;62504;46.070;14.492;2022-08-18T00:00:32;24.40;99.90
64689;DHT22;62504;46.070;14.492;2022-08-18T00:03:03;24.40;99.90
64689;DHT22;62504;46.070;14.492;2022-08-18T00:05:29;24.40;99.90
64689;DHT22;62504;46.070;14.492;2022-08-18T00:07:56;24.40;99.90
64689;DHT22;62504;46.070;14.492;2022-08-18T00:10:22;24.30;99.90
64689;DHT22;62504;46.070;14.492;2022-08-18T00:12:48;24.40;99.90
64689;DHT22;62504;46.070;14.492;2022-08-18T00:15:15;24.40;99.90
64689;DHT22;62504;46.070;14.492;2022-08-18T00:17:41;24.40;99.90
64689;DHT22;62504;46.070;14.492;2022-08-18T00:20:13;24.40;99.90
64689;DHT22;62504;46.070;14.492;2022-08-18T00:22:39;24.30;99.90
64689;DHT22;62504;46.070;14.492;2022-08-18T00:25:07;24.30;99.90
64689;DHT22;62504;46.070;14.492;2022-08-18T00:27:34;24.30;99.90
64689;DHT22;62504;46.070;14.492;2022-08-18T00:30:04;24.30;99.90
64689;DHT22;62504;46.070;14.492;2022-08-18T00:32:42;24.30;99.90
64689;DHT22;62504;46.070;14.492;2022-08-18T00:35:21;24.30;99.90
64689;DHT22;62504;46.070;14.492;2022-08-18T00:37:52;24.40;99.90
64689;DHT22;62504;46.070;14.492;2022-08-18T00:40:22;24.30;99.90
64689;DHT22;62504;46.070;14.492;2022-08-18T00:42:54;24.30;99.90
64689;DHT22;62504;46.070;14.492;2022-08-18T00:45:27;24.20;99.90
64689;DHT22;62504;46.070;14.492;2022-08-18T00:47:53;24.20;99.90
64689;DHT22;62504;46.070;14.492;2022-08-18T00:50:36;24.10;99.90
64689;DHT22;62504;46.070;14.492;2022-08-18T00:53:11;24.00;99.90
64689;DHT22;62504;46.070;14.492;2022-08-18T00:55:41;24.00;99.90
64689;DHT22;62504;46.070;14.492;2022-08-18T00:58:14;24.00;99.90
64689;DHT22;62504;46.070;14.492;2022-08-18T01:00:41;23.90;99.90
64689;DHT22;62504;46.070;14.492;2022-08-18T01:03:12;24.00;99.90
64689;DHT22;62504;46.070;14.492;2022-08-18T01:05:47;24.00;99.90
64689;DHT22;62504;46.070;14.492;2022-08-18T01:08:14;24.00;99.90
64689;DHT22;62504;46.070;14.492;2022-08-18T01:10:41;24.00;99.90
64689;DHT22;62504;46.070;14.492;2022-08-18T01:13:07;24.00;99.90
64689;DHT22;62504;46.070;14.492;2022-08-18T01:15:34;24.00;99.90
64689;DHT22;62504;46.070;14.492;2022-08-18T01:18:08;23.90;99.90
64689;DHT22;62504;46.070;14.492;2022-08-18T01:21:01;24.00;99.90
64689;DHT22;62504;46.070;14.492;2022-08-18T01:23:47;23.90;99.90
64689;DHT22;62504;46.070;14.492;2022-08-18T01:26:16;23.80;99.90
64689;DHT22;62504;46.070;14.492;2022-08-18T01:28:43;23.90;99.90
64689;DHT22;62504;46.070;14.492;2022-08-18T01:31:11;23.80;99.90
64689;DHT22;62504;46.070;14.492;2022-08-18T01:33:41;23.80;99.90
64689;DHT22;62504;46.070;14.492;2022-08-18T01:36:16;23.80;99.90
64689;DHT22;62504;46.070;14.492;2022-08-18T01:38:44;23.80;99.90
64689;DHT22;62504;46.070;14.492;2022-08-18T01:41:10;23.70;99.90
64689;DHT22;62504;46.070;14.492;2022-08-18T01:43:36;23.70;99.90
64689;DHT22;62504;46.070;14.492;2022-08-18T01:46:03;23.70;99.90
64689;DHT22;62504;46.070;14.492;2022-08-18T01:48:30;23.70;99.90
64689;DHT22;62504;46.070;14.492;2022-08-18T01:51:03;23.60;99.90
64689;DHT22;62504;46.070;14.492;2022-08-18T01:53:29;23.50;99.90
64689;DHT22;62504;46.070;14.492;2022-08-18T01:55:55;23.60;99.90
64689;DHT22;62504;46.070;14.492;2022-08-18T01:58:21;23.60;99.90
64689;DHT22;62504;46.070;14.492;2022-08-18T02:00:52;23.70;99.90
64689;DHT22;62504;46.070;14.492;2022-08-18T02:03:18;23.70;99.90
64689;DHT22;62504;46.070;14.492;2022-08-18T02:05:48;23.70;99.90
64689;DHT22;62504;46.070;14.492;2022-08-18T02:08:15;23.70;99.90
64689;DHT22;62504;46.070;14.492;2022-08-18T02:10:41;23.60;99.90
64689;DHT22;62504;46.070;14.492;2022-08-18T02:13:07;23.60;99.90
64689;DHT22;62504;46.070;14.492;2022-08-18T02:15:34;23.50;99.90
64689;DHT22;62504;46.070;14.492;2022-08-18T02:18:00;23.10;99.90
64689;DHT22;62504;46.070;14.492;2022-08-18T02:20:26;23.10;99.90
64689;DHT22;62504;46.070;14.492;2022-08-18T02:22:52;23.30;99.90
64689;DHT22;62504;46.070;14.492;2022-08-18T02:25:18;23.30;99.90
64689;DHT22;62504;46.070;14.492;2022-08-18T02:27:44;23.40;99.90
64689;DHT22;62504;46.070;14.492;2022-08-18T02:30:13;23.40;99.90
64689;DHT22;62504;46.070;14.492;2022-08-18T02:32:40;23.50;99.90
64689;DHT22;62504;46.070;14.492;2022-08-18T02:35:06;23.40;99.90
64689;DHT22;62504;46.070;14.492;2022-08-18T02:37:33;23.40;99.90
64689;DHT22;62504;46.070;14.492;2022-08-18T02:39:59;23.40;99.90
64689;DHT22;62504;46.070;14.492;2022-08-18T02:42:24;23.40;99.90
64689;DHT22;62504;46.070;14.492;2022-08-18T02:44:50;23.30;99.90
64689;DHT22;62504;46.070;14.492;2022-08-18T02:47:19;23.30;99.90
64689;DHT22;62504;46.070;14.492;2022-08-18T02:49:45;23.20;99.90
64689;DHT22;62504;46.070;14.492;2022-08-18T02:52:11;23.10;99.90
64689;DHT22;62504;46.070;14.492;2022-08-18T02:54:37;23.00;99.90
64689;DHT22;62504;46.070;14.492;2022-08-18T02:57:10;23.00;99.90
64689;DHT22;62504;46.070;14.492;2022-08-18T02:59:38;22.90;99.90
64689;DHT22;62504;46.070;14.492;2022-08-18T03:02:05;22.70;99.90
64689;DHT22;62504;46.070;14.492;2022-08-18T03:04:34;22.80;99.90
64689;DHT22;62504;46.070;14.492;2022-08-18T03:07:02;22.60;99.90
64689;DHT22;62504;46.070;14.492;2022-08-18T03:09:30;22.50;99.90
64689;DHT22;62504;46.070;14.492;2022-08-18T03:11:56;22.60;99.90
64689;DHT22;62504;46.070;14.492;2022-08-18T03:14:23;22.70;99.90
64689;DHT22;62504;46.070;14.492;2022-08-18T03:16:49;22.70;99.90
64689;DHT22;62504;46.070;14.492;2022-08-18T03:19:15;22.70;99.90
64689;DHT22;62504;46.070;14.492;2022-08-18T03:21:43;22.70;99.90
64689;DHT22;62504;46.070;14.492;2022-08-18T03:24:09;22.70;99.90
64689;DHT22;62504;46.070;14.492;2022-08-18T03:26:40;22.60;99.90
64689;DHT22;62504;46.070;14.492;2022-08-18T03:29:06;22.60;99.90
64689;DHT22;62504;46.070;14.492;2022-08-18T03:31:32;22.40;99.90
64689;DHT22;62504;46.070;14.492;2022-08-18T03:33:59;22.50;99.90
64689;DHT22;62504;46.070;14.492;2022-08-18T03:36:31;22.40;99.90
64689;DHT22;62504;46.070;14.492;2022-08-18T03:38:57;22.50;99.90
64689;DHT22;62504;46.070;14.492;2022-08-18T03:41:25;22.40;99.90
64689;DHT22;62504;46.070;14.492;2022-08-18T03:43:51;22.30;99.90
64689;DHT22;62504;46.070;14.492;2022-08-18T03:46:18;22.10;99.90
64689;DHT22;62504;46.070;14.492;2022-08-18T03:48:44;22.00;99.90
64689;DHT22;62504;46.070;14.492;2022-08-18T03:51:23;22.10;99.90
64689;DHT22;62504;46.070;14.492;2022-08-18T03:53:53;22.10;99.90
64689;DHT22;62504;46.070;14.492;2022-08-18T03:56:23;22.00;99.90
64689;DHT22;62504;46.070;14.492;2022-08-18T03:58:58;22.10;99.90
64689;DHT22;62504;46.070;14.492;2022-08-18T04:01:27;22.00;99.90
64689;DHT22;62504;46.070;14.492;2022-08-18T04:03:56;21.90;99.90
64689;DHT22;62504;46.070;14.492;2022-08-18T04:06:36;22.00;99.90
64689;DHT22;62504;46.070;14.492;2022-08-18T04:09:08;21.90;99.90
64689;DHT22;62504;46.070;14.492;2022-08-18T04:11:36;21.90;99.90
64689;DHT22;62504;46.070;14.492;2022-08-18T04:14:03;21.90;99.90
64689;DHT22;62504;46.070;14.492;2022-08-18T04:16:30;21.90;99.90
64689;DHT22;62504;46.070;14.492;2022-08-18T04:19:03;21.90;99.90
64689;DHT22;62504;46.070;14.492;2022-08-18T04:21:31;22.00;99.90
64689;DHT22;62504;46.070;14.492;2022-08-18T04:23:58;21.90;99.90
64689;DHT22;62504;46.070;14.492;2022-08-18T04:26:34;21.90;99.90
64689;DHT22;62504;46.070;14.492;2022-08-18T04:29:01;22.00;99.90
64689;DHT22;62504;46.070;14.492;2022-08-18T04:31:28;22.00;99.90
64689;DHT22;62504;46.070;14.492;2022-08-18T04:33:54;21.90;99.90
64689;DHT22;62504;46.070;14.492;2022-08-18T04:36:21;22.00;99.90
64689;DHT22;62504;46.070;14.492;2022-08-18T04:38:46;22.00;99.90
64689;DHT22;62504;46.070;14.492;2022-08-18T04:41:12;22.00;99.90
64689;DHT22;62504;46.070;14.492;2022-08-18T04:43:39;22.10;99.90
64689;DHT22;62504;46.070;14.492;2022-08-18T04:46:05;22.30;99.90
64689;DHT22;62504;46.070;14.492;2022-08-18T04:48:34;22.40;99.90
64689;DHT22;62504;46.070;14.492;2022-08-18T04:51:14;22.40;99.90
64689;DHT22;62504;46.070;14.492;2022-08-18T04:53:41;22.40;99.90
64689;DHT22;62504;46.070;14.492;2022-08-18T04:58:38;22.50;99.90
64689;DHT22;62504;46.070;14.492;2022-08-18T05:01:04;22.50;99.90
64689;DHT22;62504;46.070;14.492;2022-08-18T05:03:30;22.50;99.90
64689;DHT22;62504;46.070;14.492;2022-08-18T05:05:57;22.50;99.90
64689;DHT22;62504;46.070;14.492;2022-08-18T05:08:24;22.60;99.90
64689;DHT22;62504;46.070;14.492;2022-08-18T05:10:54;22.60;99.90
64689;DHT22;62504;46.070;14.492;2022-08-18T05:13:22;22.60;99.90
64689;DHT22;62504;46.070;14.492;2022-08-18T05:15:55;22.70;99.90
64689;DHT22;62504;46.070;14.492;2022-08-18T05:18:23;22.80;99.90
64689;DHT22;62504;46.070;14.492;2022-08-18T05:20:54;22.80;99.90
64689;DHT22;62504;46.070;14.492;2022-08-18T05:23:20;22.90;99.90
64689;DHT22;62504;46.070;14.492;2022-08-18T05:25:46;22.90;99.90
64689;DHT22;62504;46.070;14.492;2022-08-18T05:28:12;23.00;99.90
64689;DHT22;62504;46.070;14.492;2022-08-18T05:30:39;23.00;99.90
64689;DHT22;62504;46.070;14.492;2022-08-18T05:33:05;23.00;99.90
64689;DHT22;62504;46.070;14.492;2022-08-18T05:35:59;23.00;99.90
64689;DHT22;62504;46.070;14.492;2022-08-18T05:41:11;23.30;99.90
64689;DHT22;62504;46.070;14.492;2022-08-18T05:43:38;23.30;99.90
64689;DHT22;62504;46.070;14.492;2022-08-18T05:46:07;23.40;99.90
64689;DHT22;62504;46.070;14.492;2022-08-18T05:48:34;23.40;99.90
64689;DHT22;62504;46.070;14.492;2022-08-18T05:51:09;23.60;99.90
64689;DHT22;62504;46.070;14.492;2022-08-18T05:53:35;23.60;99.90
64689;DHT22;62504;46.070;14.492;2022-08-18T05:56:24;23.70;99.90
64689;DHT22;62504;46.070;14.492;2022-08-18T05:59:18;23.60;99.90
64689;DHT22;62504;46.070;14.492;2022-08-18T06:01:49;23.60;99.90
64689;DHT22;62504;46.070;14.492;2022-08-18T06:04:26;23.70;99.90
64689;DHT22;62504;46.070;14.492;2022-08-18T06:06:55;23.60;99.90
64689;DHT22;62504;46.070;14.492;2022-08-18T06:09:31;23.60;99.90
64689;DHT22;62504;46.070;14.492;2022-08-18T06:12:18;23.60;99.90
64689;DHT22;62504;46.070;14.492;2022-08-18T06:14:44;23.60;99.90
64689;DHT22;62504;46.070;14.492;2022-08-18T06:17:17;23.70;99.90
64689;DHT22;62504;46.070;14.492;2022-08-18T06:19:53;24.00;99.90
64689;DHT22;62504;46.070;14.492;2022-08-18T06:22:25;24.10;99.90
64689;DHT22;62504;46.070;14.492;2022-08-18T06:25:14;24.10;99.90
64689;DHT22;62504;46.070;14.492;2022-08-18T06:32:58;24.30;99.90
64689;DHT22;62504;46.070;14.492;2022-08-18T06:38:27;24.50;99.90
64689;DHT22;62504;46.070;14.492;2022-08-18T06:41:16;24.30;99.90
64689;DHT22;62504;46.070;14.492;2022-08-18T06:46:19;24.60;99.90
64689;DHT22;62504;46.070;14.492;2022-08-18T06:48:57;24.70;99.90
64689;DHT22;62504;46.070;14.492;2022-08-18T06:51:27;24.90;99.90
64689;DHT22;62504;46.070;14.492;2022-08-18T06:54:07;24.90;99.90
64689;DHT22;62504;46.070;14.492;2022-08-18T06:56:52;25.10;99.90
64689;DHT22;62504;46.070;14.492;2022-08-18T07:01:46;25.20;99.90
64689;DHT22;62504;46.070;14.492;2022-08-18T07:04:38;25.30;99.90
64689;DHT22;62504;46.070;14.492;2022-08-18T07:07:17;25.30;99.90
64689;DHT22;62504;46.070;14.492;2022-08-18T07:09:46;25.30;99.90
64689;DHT22;62504;46.070;14.492;2022-08-18T07:12:19;25.40;99.90
64689;DHT22;62504;46.070;14.492;2022-08-18T07:14:48;25.50;99.90
64689;DHT22;62504;46.070;14.492;2022-08-18T07:17:29;25.60;99.90
64689;DHT22;62504;46.070;14.492;2022-08-18T07:20:00;25.80;99.90
64689;DHT22;62504;46.070;14.492;2022-08-18T07:22:27;26.00;99.90
64689;DHT22;62504;46.070;14.492;2022-08-18T07:24:55;26.20;99.90
64689;DHT22;62504;46.070;14.492;2022-08-18T07:27:44;26.20;99.90
64689;DHT22;62504;46.070;14.492;2022-08-18T07:30:26;26.40;99.90
64689;DHT22;62504;46.070;14.492;2022-08-18T07:35:36;26.30;99.90
64689;DHT22;62504;46.070;14.492;2022-08-18T07:38:16;26.40;99.90
64689;DHT22;62504;46.070;14.492;2022-08-18T07:41:07;25.80;99.90
64689;DHT22;62504;46.070;14.492;2022-08-18T07:48:48;26.00;99.90
64689;DHT22;62504;46.070;14.492;2022-08-18T07:56:40;26.90;99.90
64689;DHT22;62504;46.070;14.492;2022-08-18T07:59:45;27.10;99.90
64689;DHT22;62504;46.070;14.492;2022-08-18T08:13:56;27.90;99.90
64689;DHT22;62504;46.070;14.492;2022-08-18T08:21:31;27.50;99.90
64689;DHT22;62504;46.070;14.492;2022-08-18T08:32:04;27.70;99.90
64689;DHT22;62504;46.070;14.492;2022-08-18T08:37:26;27.40;99.90
64689;DHT22;62504;46.070;14.492;2022-08-18T08:42:55;27.60;99.90
64689;DHT22;62504;46.070;14.492;2022-08-18T08:45:27;28.10;99.90
64689;DHT22;62504;46.070;14.492;2022-08-18T08:48:20;28.40;99.90
64689;DHT22;62504;46.070;14.492;2022-08-18T08:53:31;27.60;99.90
64689;DHT22;62504;46.070;14.492;2022-08-18T08:56:18;27.80;99.90
64689;DHT22;62504;46.070;14.492;2022-08-18T09:01:42;28.40;99.90
64689;DHT22;62504;46.070;14.492;2022-08-18T09:15:48;28.60;99.90
64689;DHT22;62504;46.070;14.492;2022-08-18T09:21:27;28.10;99.90
64689;DHT22;62504;46.070;14.492;2022-08-18T09:24:22;28.00;99.90
64689;DHT22;62504;46.070;14.492;2022-08-18T09:26:53;28.40;99.90
64689;DHT22;62504;46.070;14.492;2022-08-18T09:38:19;29.60;99.90
64689;DHT22;62504;46.070;14.492;2022-08-18T09:40:50;29.70;99.90
64689;DHT22;62504;46.070;14.492;2022-08-18T09:44:07;29.80;99.90
64689;DHT22;62504;46.070;14.492;2022-08-18T09:55:01;29.60;99.90
64689;DHT22;62504;46.070;14.492;2022-08-18T09:57:34;29.80;99.50
64689;DHT22;62504;46.070;14.492;2022-08-18T10:13:25;30.40;93.60
64689;DHT22;62504;46.070;14.492;2022-08-18T10:27:09;30.80;89.80
64689;DHT22;62504;46.070;14.492;2022-08-18T10:34:50;31.20;91.10
64689;DHT22;62504;46.070;14.492;2022-08-18T10:37:46;31.10;82.80
64689;DHT22;62504;46.070;14.492;2022-08-18T10:40:19;31.00;84.40
64689;DHT22;62504;46.070;14.492;2022-08-18T10:42:59;31.00;80.60
64689;DHT22;62504;46.070;14.492;2022-08-18T10:45:31;31.00;80.60
64689;DHT22;62504;46.070;14.492;2022-08-18T10:48:09;31.10;82.00
64689;DHT22;62504;46.070;14.492;2022-08-18T10:50:45;30.90;81.10
64689;DHT22;62504;46.070;14.492;2022-08-18T11:01:11;31.10;78.10
64689;DHT22;62504;46.070;14.492;2022-08-18T11:06:25;31.30;76.60
64689;DHT22;62504;46.070;14.492;2022-08-18T11:08:59;31.40;76.60
64689;DHT22;62504;46.070;14.492;2022-08-18T11:11:35;31.40;77.20
64689;DHT22;62504;46.070;14.492;2022-08-18T11:16:42;31.50;76.70
64689;DHT22;62504;46.070;14.492;2022-08-18T11:19:12;31.40;76.20
64689;DHT22;62504;46.070;14.492;2022-08-18T11:21:44;31.40;77.40
64689;DHT22;62504;46.070;14.492;2022-08-18T11:24:15;31.50;77.60
64689;DHT22;62504;46.070;14.492;2022-08-18T11:26:53;31.80;78.90
64689;DHT22;62504;46.070;14.492;2022-08-18T11:29:32;31.90;79.10
64689;DHT22;62504;46.070;14.492;2022-08-18T11:32:08;31.80;76.70
64689;DHT22;62504;46.070;14.492;2022-08-18T11:34:48;31.70;77.30
64689;DHT22;62504;46.070;14.492;2022-08-18T11:39:50;31.60;78.30
64689;DHT22;62504;46.070;14.492;2022-08-18T11:42:19;31.70;79.50
64689;DHT22;62504;46.070;14.492;2022-08-18T11:44:53;31.80;78.50
64689;DHT22;62504;46.070;14.492;2022-08-18T11:47:21;31.90;77.80
64689;DHT22;62504;46.070;14.492;2022-08-18T11:50:05;32.00;78.70
64689;DHT22;62504;46.070;14.492;2022-08-18T11:52:48;32.10;80.70
64689;DHT22;62504;46.070;14.492;2022-08-18T11:55:41;31.90;79.30
64689;DHT22;62504;46.070;14.492;2022-08-18T11:58:06;31.90;80.00
64689;DHT22;62504;46.070;14.492;2022-08-18T12:05:50;31.60;79.40
64689;DHT22;62504;46.070;14.492;2022-08-18T12:11:13;31.40;81.50
64689;DHT22;62504;46.070;14.492;2022-08-18T12:13:44;31.20;81.90
64689;DHT22;62504;46.070;14.492;2022-08-18T12:16:29;31.10;82.90
64689;DHT22;62504;46.070;14.492;2022-08-18T12:18:55;31.00;83.50
64689;DHT22;62504;46.070;14.492;2022-08-18T12:21:21;31.00;84.50
64689;DHT22;62504;46.070;14.492;2022-08-18T12:23:47;31.00;85.10
64689;DHT22;62504;46.070;14.492;2022-08-18T12:26:13;31.00;85.50
64689;DHT22;62504;46.070;14.492;2022-08-18T12:28:39;30.90;86.30
64689;DHT22;62504;46.070;14.492;2022-08-18T12:31:06;30.90;86.70
64689;DHT22;62504;46.070;14.492;2022-08-18T12:33:33;30.80;87.70
64689;DHT22;62504;46.070;14.492;2022-08-18T12:35:59;30.70;87.90
64689;DHT22;62504;46.070;14.492;2022-08-18T12:38:25;30.60;86.60
64689;DHT22;62504;46.070;14.492;2022-08-18T12:40:50;30.40;86.20
64689;DHT22;62504;46.070;14.492;2022-08-18T12:43:17;30.10;89.10
64689;DHT22;62504;46.070;14.492;2022-08-18T12:45:43;29.20;93.00
64689;DHT22;62504;46.070;14.492;2022-08-18T12:48:09;28.30;94.30
64689;DHT22;62504;46.070;14.492;2022-08-18T12:50:35;27.80;94.90
64689;DHT22;62504;46.070;14.492;2022-08-18T12:53:01;27.50;95.70
64689;DHT22;62504;46.070;14.492;2022-08-18T12:55:33;26.90;97.50
64689;DHT22;62504;46.070;14.492;2022-08-18T12:57:59;26.40;99.90
64689;DHT22;62504;46.070;14.492;2022-08-18T13:00:25;26.00;99.90
64689;DHT22;62504;46.070;14.492;2022-08-18T13:02:50;25.70;99.90
64689;DHT22;62504;46.070;14.492;2022-08-18T13:05:16;25.60;99.90
64689;DHT22;62504;46.070;14.492;2022-08-18T13:07:44;25.60;99.90
64689;DHT22;62504;46.070;14.492;2022-08-18T13:10:09;25.40;99.90
64689;DHT22;62504;46.070;14.492;2022-08-18T13:12:35;25.40;99.90
64689;DHT22;62504;46.070;14.492;2022-08-18T13:15:02;25.30;99.90
64689;DHT22;62504;46.070;14.492;2022-08-18T13:17:30;25.30;99.90
64689;DHT22;62504;46.070;14.492;2022-08-18T13:19:56;25.10;99.90
64689;DHT22;62504;46.070;14.492;2022-08-18T13:22:22;24.90;99.90
64689;DHT22;62504;46.070;14.492;2022-08-18T13:24:48;24.80;99.90
64689;DHT22;62504;46.070;14.492;2022-08-18T13:27:15;24.70;99.90
64689;DHT22;62504;46.070;14.492;2022-08-18T13:29:40;24.60;99.90
64689;DHT22;62504;46.070;14.492;2022-08-18T13:32:06;24.50;99.90
64689;DHT22;62504;46.070;14.492;2022-08-18T13:34:33;24.50;99.90
64689;DHT22;62504;46.070;14.492;2022-08-18T13:36:59;24.40;99.90
64689;DHT22;62504;46.070;14.492;2022-08-18T13:39:25;23.60;99.90
64689;DHT22;62504;46.070;14.492;2022-08-18T13:41:53;23.30;99.90
64689;DHT22;62504;46.070;14.492;2022-08-18T13:44:19;23.30;99.90
64689;DHT22;62504;46.070;14.492;2022-08-18T13:46:47;23.50;99.90
64689;DHT22;62504;46.070;14.492;2022-08-18T13:49:14;23.40;99.90
64689;DHT22;62504;46.070;14.492;2022-08-18T13:51:42;23.60;99.90
64689;DHT22;62504;46.070;14.492;2022-08-18T13:54:17;23.80;99.90
64689;DHT22;62504;46.070;14.492;2022-08-18T13:56:44;23.90;99.90
64689;DHT22;62504;46.070;14.492;2022-08-18T13:59:10;24.00;99.90
64689;DHT22;62504;46.070;14.492;2022-08-18T14:01:37;24.10;99.90
64689;DHT22;62504;46.070;14.492;2022-08-18T14:04:04;24.50;99.90
64689;DHT22;62504;46.070;14.492;2022-08-18T14:06:30;24.70;99.90
64689;DHT22;62504;46.070;14.492;2022-08-18T14:08:56;25.00;99.90
64689;DHT22;62504;46.070;14.492;2022-08-18T14:11:29;25.20;99.90
64689;DHT22;62504;46.070;14.492;2022-08-18T14:13:55;25.40;99.90
64689;DHT22;62504;46.070;14.492;2022-08-18T14:16:22;25.50;99.90
64689;DHT22;62504;46.070;14.492;2022-08-18T14:18:48;25.40;99.90
64689;DHT22;62504;46.070;14.492;2022-08-18T14:21:34;25.20;99.90
64689;DHT22;62504;46.070;14.492;2022-08-18T14:24:19;25.30;99.90
64689;DHT22;62504;46.070;14.492;2022-08-18T14:27:04;24.80;99.90
64689;DHT22;62504;46.070;14.492;2022-08-18T14:29:30;25.00;99.90
64689;DHT22;62504;46.070;14.492;2022-08-18T14:31:56;24.90;99.90
64689;DHT22;62504;46.070;14.492;2022-08-18T14:34:21;25.10;99.90
64689;DHT22;62504;46.070;14.492;2022-08-18T14:36:47;25.40;99.90
64689;DHT22;62504;46.070;14.492;2022-08-18T14:39:13;25.40;99.90
64689;DHT22;62504;46.070;14.492;2022-08-18T14:41:39;25.60;99.90
64689;DHT22;62504;46.070;14.492;2022-08-18T14:44:05;25.60;99.90
64689;DHT22;62504;46.070;14.492;2022-08-18T14:46:31;25.30;99.90
64689;DHT22;62504;46.070;14.492;2022-08-18T14:48:57;25.30;99.90
64689;DHT22;62504;46.070;14.492;2022-08-18T14:51:24;25.60;99.90
64689;DHT22;62504;46.070;14.492;2022-08-18T14:53:50;25.80;99.90
64689;DHT22;62504;46.070;14.492;2022-08-18T14:56:16;25.90;99.90
64689;DHT22;62504;46.070;14.492;2022-08-18T14:58:42;26.00;99.90
64689;DHT22;62504;46.070;14.492;2022-08-18T15:01:09;26.20;99.90
64689;DHT22;62504;46.070;14.492;2022-08-18T15:03:36;26.10;99.90
64689;DHT22;62504;46.070;14.492;2022-08-18T15:06:03;26.10;99.90
64689;DHT22;62504;46.070;14.492;2022-08-18T15:08:30;25.60;99.90
64689;DHT22;62504;46.070;14.492;2022-08-18T15:10:57;25.90;99.90
64689;DHT22;62504;46.070;14.492;2022-08-18T15:13:23;25.90;99.90
64689;DHT22;62504;46.070;14.492;2022-08-18T15:15:49;25.60;99.90
64689;DHT22;62504;46.070;14.492;2022-08-18T15:18:15;25.30;99.90
64689;DHT22;62504;46.070;14.492;2022-08-18T15:20:43;25.30;99.90
64689;DHT22;62504;46.070;14.492;2022-08-18T15:23:27;25.60;99.90
64689;DHT22;62504;46.070;14.492;2022-08-18T15:26:11;25.70;99.90
64689;DHT22;62504;46.070;14.492;2022-08-18T15:28:37;25.90;99.90
64689;DHT22;62504;46.070;14.492;2022-08-18T15:31:04;25.80;99.90
64689;DHT22;62504;46.070;14.492;2022-08-18T15:33:30;25.60;99.90
64689;DHT22;62504;46.070;14.492;2022-08-18T15:35:56;25.70;99.90
64689;DHT22;62504;46.070;14.492;2022-08-18T15:38:23;25.60;99.90
64689;DHT22;62504;46.070;14.492;2022-08-18T15:40:50;25.60;99.90
64689;DHT22;62504;46.070;14.492;2022-08-18T15:43:16;25.30;99.90
64689;DHT22;62504;46.070;14.492;2022-08-18T15:45:46;25.00;99.90
64689;DHT22;62504;46.070;14.492;2022-08-18T15:48:15;24.90;99.90
64689;DHT22;62504;46.070;14.492;2022-08-18T15:50:45;25.10;99.90
64689;DHT22;62504;46.070;14.492;2022-08-18T15:53:14;25.20;99.90
64689;DHT22;62504;46.070;14.492;2022-08-18T15:55:40;25.00;99.90
64689;DHT22;62504;46.070;14.492;2022-08-18T15:58:08;25.10;99.90
64689;DHT22;62504;46.070;14.492;2022-08-18T16:00:34;25.40;99.90
64689;DHT22;62504;46.070;14.492;2022-08-18T16:03:04;25.30;99.90
64689;DHT22;62504;46.070;14.492;2022-08-18T16:05:33;25.40;99.90
64689;DHT22;62504;46.070;14.492;2022-08-18T16:08:00;25.40;99.90
64689;DHT22;62504;46.070;14.492;2022-08-18T16:10:28;25.30;99.90
64689;DHT22;62504;46.070;14.492;2022-08-18T16:12:54;25.40;99.90
64689;DHT22;62504;46.070;14.492;2022-08-18T16:15:24;25.40;99.90
64689;DHT22;62504;46.070;14.492;2022-08-18T16:17:52;25.50;99.90
64689;DHT22;62504;46.070;14.492;2022-08-18T16:20:19;25.40;99.90
64689;DHT22;62504;46.070;14.492;2022-08-18T16:22:46;25.10;99.90
64689;DHT22;62504;46.070;14.492;2022-08-18T16:25:12;25.40;99.90
64689;DHT22;62504;46.070;14.492;2022-08-18T16:27:38;25.50;99.90
64689;DHT22;62504;46.070;14.492;2022-08-18T16:30:13;25.40;99.90
64689;DHT22;62504;46.070;14.492;2022-08-18T16:32:39;25.20;99.90
64689;DHT22;62504;46.070;14.492;2022-08-18T16:35:05;25.20;99.90
64689;DHT22;62504;46.070;14.492;2022-08-18T16:37:31;25.30;99.90
64689;DHT22;62504;46.070;14.492;2022-08-18T16:40:00;25.40;99.90
64689;DHT22;62504;46.070;14.492;2022-08-18T16:42:29;25.30;99.90
64689;DHT22;62504;46.070;14.492;2022-08-18T16:44:57;25.10;99.90
64689;DHT22;62504;46.070;14.492;2022-08-18T16:47:23;25.10;99.90
64689;DHT22;62504;46.070;14.492;2022-08-18T16:49:52;25.20;99.90
64689;DHT22;62504;46.070;14.492;2022-08-18T16:52:18;25.30;99.90
64689;DHT22;62504;46.070;14.492;2022-08-18T16:54:46;25.10;99.90
64689;DHT22;62504;46.070;14.492;2022-08-18T16:57:12;25.20;99.90
64689;DHT22;62504;46.070;14.492;2022-08-18T16:59:38;25.10;99.90
64689;DHT22;62504;46.070;14.492;2022-08-18T17:02:23;24.80;99.90
64689;DHT22;62504;46.070;14.492;2022-08-18T17:05:08;25.00;99.90
64689;DHT22;62504;46.070;14.492;2022-08-18T17:07:35;25.30;99.90
64689;DHT22;62504;46.070;14.492;2022-08-18T17:10:01;25.40;99.90
64689;DHT22;62504;46.070;14.492;2022-08-18T17:12:29;25.60;99.90
64689;DHT22;62504;46.070;14.492;2022-08-18T17:14:55;25.60;99.90
64689;DHT22;62504;46.070;14.492;2022-08-18T17:17:21;25.60;99.90
64689;DHT22;62504;46.070;14.492;2022-08-18T17:19:48;25.60;99.90
64689;DHT22;62504;46.070;14.492;2022-08-18T17:22:15;25.40;99.90
64689;DHT22;62504;46.070;14.492;2022-08-18T17:24:42;25.60;99.90
64689;DHT22;62504;46.070;14.492;2022-08-18T17:27:18;25.60;99.90
64689;DHT22;62504;46.070;14.492;2022-08-18T17:32:20;25.70;99.90
64689;DHT22;62504;46.070;14.492;2022-08-18T17:34:57;25.60;99.90
64689;DHT22;62504;46.070;14.492;2022-08-18T17:37:25;25.60;99.90
64689;DHT22;62504;46.070;14.492;2022-08-18T17:40:04;25.50;99.90
64689;DHT22;62504;46.070;14.492;2022-08-18T17:42:31;25.50;99.90
64689;DHT22;62504;46.070;14.492;2022-08-18T17:45:01;25.40;99.90
64689;DHT22;62504;46.070;14.492;2022-08-18T17:50:07;25.30;99.90
64689;DHT22;62504;46.070;14.492;2022-08-18T17:52:58;25.30;99.90
64689;DHT22;62504;46.070;14.492;2022-08-18T17:55:28;25.20;99.90
64689;DHT22;62504;46.070;14.492;2022-08-18T17:58:05;25.30;99.90
64689;DHT22;62504;46.070;14.492;2022-08-18T18:00:34;25.10;99.90
64689;DHT22;62504;46.070;14.492;2022-08-18T18:02:59;25.00;99.90
64689;DHT22;62504;46.070;14.492;2022-08-18T18:05:35;25.10;99.90
64689;DHT22;62504;46.070;14.492;2022-08-18T18:08:01;24.80;99.90
64689;DHT22;62504;46.070;14.492;2022-08-18T18:10:32;24.80;99.90
64689;DHT22;62504;46.070;14.492;2022-08-18T18:15:34;24.90;99.90